Terminal Aerodrome Forecast
Issued by NWS Bismarck, ND

Home | Current Version | Previous Version | Text Only | Print | Product List | Glossary Off
Versions: 1 2 3 4 5 6 7 8 9 10 11 12 13 14 15

000
FTUS43 KBIS 142300
TAFBIS
TAF
KBIS 142335Z 1500/1524 VRB06KT P6SM FEW250
     FM151600 15017G23KT P6SM BKN070=

USA.gov is the U.S. government's official web portal to all federal, state and local government web resources and services.